createdAt,value
2023-04-01T00:03:45.593Z,16.25
2023-04-01T00:08:47.665Z,16.45
2023-04-01T00:13:49.575Z,14.40
2023-04-01T00:18:51.939Z,11.85
2023-04-01T00:23:53.569Z,16.08
2023-04-01T00:28:55.195Z,16.13
2023-04-01T00:33:57.471Z,13.05
2023-04-01T00:39:00.217Z,11.63
2023-04-01T00:44:24.157Z,10.85
2023-04-01T00:49:49.501Z,10.20
2023-04-01T00:54:57.540Z,7.70
2023-04-01T01:00:00.322Z,6.82
2023-04-01T01:05:02.476Z,9.63
2023-04-01T01:10:41.097Z,14.77
2023-04-01T01:15:48.655Z,12.27
2023-04-01T01:20:56.196Z,16.88
2023-04-01T01:26:13.345Z,11.57
2023-04-01T01:31:29.074Z,12.82
2023-04-01T01:36:36.867Z,10.05
2023-04-01T01:41:45.134Z,9.88
2023-04-01T01:46:48.672Z,7.30
2023-04-01T01:51:50.537Z,7.05
2023-04-01T01:57:16.759Z,8.98
2023-04-01T02:02:23.857Z,7.70
2023-04-01T02:07:32.345Z,7.85
2023-04-01T02:12:38.357Z,10.85
2023-04-01T02:17:46.370Z,9.82
2023-04-01T02:22:58.836Z,11.48
2023-04-01T02:28:01.434Z,9.82
2023-04-01T02:33:05.048Z,11.95
2023-04-01T02:38:07.360Z,13.93
2023-04-01T02:43:09.811Z,12.63
2023-04-01T02:48:11.596Z,12.23
2023-04-01T02:53:13.321Z,16.20
2023-04-01T02:58:14.963Z,16.33
2023-04-01T03:03:16.669Z,14.52
2023-04-01T03:08:18.417Z,17.55
2023-04-01T03:13:20.135Z,15.10
2023-04-01T03:18:21.961Z,23.50
2023-04-01T03:23:25.381Z,18.88
2023-04-01T03:28:27.041Z,21.08
2023-04-01T03:33:28.899Z,18.05
2023-04-01T03:38:30.836Z,20.50
2023-04-01T03:43:33.360Z,13.88
2023-04-01T03:48:35.508Z,20.00
2023-04-01T03:53:37.286Z,18.83
2023-04-01T03:58:41.067Z,17.23
2023-04-01T04:03:45.269Z,17.80
2023-04-01T04:08:47.488Z,16.42
2023-04-01T04:13:49.816Z,25.95
2023-04-01T04:18:52.476Z,23.10
2023-04-01T04:23:54.111Z,23.30
2023-04-01T04:28:56.655Z,19.30
2023-04-01T04:34:01.369Z,19.83
2023-04-01T04:39:04.227Z,16.35
2023-04-01T04:44:07.938Z,14.75
2023-04-01T04:49:09.779Z,18.27
2023-04-01T04:54:11.452Z,15.52
2023-04-01T04:59:29.108Z,17.95
2023-04-01T05:04:39.295Z,22.98
2023-04-01T05:09:46.669Z,13.32
2023-04-01T05:14:48.702Z,12.70
2023-04-01T05:19:50.484Z,16.00
2023-04-01T05:24:52.221Z,10.75
2023-04-01T05:29:53.997Z,13.10
2023-04-01T05:35:28.004Z,13.32
2023-04-01T05:40:30.977Z,9.30
2023-04-01T05:45:32.849Z,13.55
2023-04-01T05:50:49.913Z,8.38
2023-04-01T05:55:51.826Z,10.02
2023-04-01T06:01:09.676Z,10.88
2023-04-01T06:06:24.582Z,14.60
2023-04-01T06:11:45.626Z,14.93
2023-04-01T06:17:13.538Z,12.85
2023-04-01T06:22:24.733Z,16.42
2023-04-01T06:27:50.841Z,16.20
2023-04-01T06:33:22.040Z,17.98
2023-04-01T06:38:48.474Z,19.23
2023-04-01T06:44:20.003Z,21.92
2023-04-01T06:50:25.251Z,17.20
2023-04-01T06:56:08.655Z,15.32
2023-04-01T07:01:39.212Z,18.40
2023-04-01T07:06:44.972Z,15.98
2023-04-01T07:11:46.887Z,16.92
2023-04-01T07:17:21.926Z,17.30
2023-04-01T07:22:39.251Z,14.27
2023-04-01T07:27:57.815Z,16.52
2023-04-01T07:32:59.469Z,18.70
2023-04-01T07:38:34.746Z,16.13
2023-04-01T07:43:50.358Z,15.88
2023-04-01T07:49:20.189Z,19.13
2023-04-01T07:54:33.992Z,19.33
2023-04-01T07:59:52.989Z,15.57
2023-04-01T08:05:20.491Z,11.93
2023-04-01T08:11:01.423Z,16.65
2023-04-01T08:16:29.090Z,15.43
2023-04-01T08:21:42.541Z,15.50
2023-04-01T08:26:50.745Z,14.23
2023-04-01T08:31:58.205Z,18.13
2023-04-01T08:37:06.465Z,14.80
2023-04-01T08:42:27.076Z,14.15
2023-04-01T08:47:53.896Z,14.65
2023-04-01T08:53:27.970Z,12.75
2023-04-01T08:58:58.565Z,12.95
2023-04-01T09:04:25.059Z,12.50
2023-04-01T09:09:45.969Z,12.90
2023-04-01T09:15:17.077Z,14.20
2023-04-01T09:20:47.118Z,17.20
2023-04-01T09:26:31.871Z,17.53
2023-04-01T09:31:44.699Z,18.77
2023-04-01T09:37:19.843Z,19.13
2023-04-01T09:42:45.149Z,19.77
2023-04-01T09:48:23.035Z,19.10
2023-04-01T09:53:57.599Z,16.98
2023-04-01T09:59:25.750Z,17.90
2023-04-01T10:05:19.708Z,20.27
2023-04-01T10:10:49.693Z,17.63
2023-04-01T10:16:26.337Z,20.75
2023-04-01T10:22:11.466Z,21.88
2023-04-01T10:27:56.802Z,25.40
2023-04-01T10:33:29.704Z,29.70
2023-04-01T10:39:14.136Z,26.45
2023-04-01T10:44:43.821Z,24.65
2023-04-01T10:50:25.145Z,22.08
2023-04-01T10:56:07.217Z,23.48
2023-04-01T11:01:36.651Z,21.50
2023-04-01T11:07:23.530Z,20.08
2023-04-01T11:12:37.327Z,21.73
2023-04-01T11:18:13.115Z,17.85
2023-04-01T11:23:33.862Z,17.67
2023-04-01T11:28:48.302Z,16.75
2023-04-01T11:34:22.215Z,17.38
2023-04-01T11:39:32.310Z,15.15
2023-04-01T11:44:44.131Z,18.42
2023-04-01T11:50:13.402Z,17.08
2023-04-01T11:55:44.490Z,19.30
2023-04-01T12:01:13.469Z,22.52
2023-04-01T12:06:34.780Z,16.40
2023-04-01T12:11:42.785Z,13.98
2023-04-01T12:17:10.757Z,15.23
2023-04-01T12:22:21.455Z,13.57
2023-04-01T12:28:00.870Z,16.05
2023-04-01T12:33:44.391Z,11.73
2023-04-01T12:39:00.682Z,15.52
2023-04-01T12:44:17.720Z,15.88
2023-04-01T12:49:52.320Z,10.68
2023-04-01T12:55:21.226Z,16.42
2023-04-01T13:00:42.366Z,12.40
2023-04-01T13:06:15.654Z,12.30
2023-04-01T13:11:28.685Z,11.73
2023-04-01T13:16:40.411Z,12.15
2023-04-01T13:22:15.182Z,12.15
2023-04-01T13:27:50.926Z,12.52
2023-04-01T13:33:09.512Z,6.68
2023-04-01T13:38:35.337Z,7.20
2023-04-01T13:43:46.337Z,7.47
2023-04-01T13:49:00.987Z,7.25
2023-04-01T13:54:39.187Z,7.68
2023-04-01T14:00:14.659Z,6.47
2023-04-01T14:05:43.276Z,6.32
2023-04-01T14:11:08.264Z,7.43
2023-04-01T14:16:45.501Z,4.97
2023-04-01T14:22:21.573Z,3.95
2023-04-01T14:27:29.491Z,4.55
2023-04-01T14:32:43.168Z,6.05
2023-04-01T14:37:57.072Z,6.70
2023-04-01T14:43:10.855Z,4.82
2023-04-01T14:48:33.233Z,6.53
2023-04-01T14:53:42.726Z,6.55
2023-04-01T14:58:59.290Z,4.65
2023-04-01T15:04:37.919Z,4.70
2023-04-01T15:09:44.316Z,7.15
2023-04-01T15:14:55.649Z,7.65
2023-04-01T15:20:16.051Z,12.05
2023-04-01T15:25:58.287Z,5.00
2023-04-01T15:31:20.204Z,5.38
2023-04-01T15:36:45.173Z,5.35
2023-04-01T15:42:02.534Z,5.95
2023-04-01T15:47:37.940Z,3.75
2023-04-01T15:52:42.540Z,4.50
2023-04-01T15:57:52.788Z,5.57
2023-04-01T16:03:11.140Z,4.57
2023-04-01T16:08:42.863Z,4.45
2023-04-01T16:14:08.176Z,4.43
2023-04-01T16:19:28.060Z,5.07
2023-04-01T16:24:46.777Z,5.65
2023-04-01T16:30:04.161Z,4.32
2023-04-01T16:35:41.342Z,6.15
2023-04-01T16:40:49.173Z,10.30
2023-04-01T16:46:16.390Z,5.53
2023-04-01T16:51:20.116Z,8.00
2023-04-01T16:56:24.772Z,5.05
2023-04-01T17:01:42.749Z,9.52
2023-04-01T17:06:47.394Z,4.20
2023-04-01T17:12:02.792Z,9.55
2023-04-01T17:17:43.574Z,5.15
2023-04-01T17:22:54.183Z,5.38
2023-04-01T17:28:10.375Z,3.80
2023-04-01T17:33:44.006Z,4.63
2023-04-01T17:39:02.633Z,5.75
2023-04-01T17:44:13.337Z,4.07
2023-04-01T17:49:27.228Z,22.15
2023-04-01T17:54:51.110Z,6.45
2023-04-01T18:00:20.819Z,5.82
2023-04-01T18:10:52.944Z,8.82
2023-04-01T18:16:36.327Z,3.10
2023-04-01T18:21:48.450Z,8.95
2023-04-01T18:27:12.446Z,12.57
2023-04-01T18:32:22.990Z,32.42
2023-04-01T18:37:55.792Z,10.48
2023-04-01T18:43:19.517Z,4.40
2023-04-01T18:48:23.910Z,6.47
2023-04-01T18:53:36.104Z,6.13
2023-04-01T18:58:51.239Z,4.78
2023-04-01T19:04:14.008Z,4.55
2023-04-01T19:09:24.095Z,4.40
2023-04-01T19:15:00.466Z,4.30
2023-04-01T19:20:26.924Z,4.70
2023-04-01T19:25:40.080Z,4.70
2023-04-01T19:30:54.836Z,6.63
2023-04-01T19:36:18.101Z,8.88
2023-04-01T19:41:42.054Z,7.05
2023-04-01T19:46:50.267Z,4.75
2023-04-01T19:52:30.005Z,5.78
2023-04-01T19:57:46.323Z,6.43
2023-04-01T20:03:04.441Z,7.05
2023-04-01T20:08:56.942Z,4.75
2023-04-01T20:14:29.132Z,7.43
2023-04-01T20:19:53.530Z,7.00
2023-04-01T20:25:01.593Z,8.60
2023-04-01T20:30:37.332Z,5.80
2023-04-01T20:35:45.024Z,5.53
2023-04-01T20:40:52.052Z,6.38
2023-04-01T20:46:00.190Z,6.00
2023-04-01T20:51:18.480Z,5.07
2023-04-01T20:56:34.154Z,7.10
2023-04-01T21:02:03.140Z,6.28
2023-04-01T21:07:43.695Z,7.32
2023-04-01T21:13:03.209Z,7.22
2023-04-01T21:18:12.574Z,5.78
2023-04-01T21:23:20.586Z,6.17
2023-04-01T21:28:35.465Z,5.40
2023-04-01T21:34:03.514Z,6.68
2023-04-01T21:39:37.751Z,9.45
2023-04-01T21:45:00.969Z,10.02
2023-04-01T21:50:29.139Z,7.75
2023-04-01T21:56:01.273Z,7.10
2023-04-01T22:01:11.012Z,9.90
2023-04-01T22:06:25.965Z,8.85
2023-04-01T22:12:02.425Z,6.35
2023-04-01T22:17:18.106Z,6.95
2023-04-01T22:22:41.112Z,7.70
2023-04-01T22:27:50.364Z,8.80
2023-04-01T22:33:07.328Z,10.17
2023-04-01T22:38:33.812Z,9.45
2023-04-01T22:43:40.679Z,7.25
2023-04-01T22:48:54.679Z,9.68
2023-04-01T22:54:12.539Z,9.13
2023-04-01T22:59:25.786Z,9.63
2023-04-01T23:04:33.274Z,9.50
2023-04-01T23:09:38.244Z,9.63
2023-04-01T23:14:57.741Z,9.57
2023-04-01T23:20:31.349Z,9.40
2023-04-01T23:26:17.587Z,6.63
2023-04-01T23:31:21.980Z,7.93
2023-04-01T23:36:24.126Z,8.98
2023-04-01T23:41:31.686Z,4.97
2023-04-01T23:46:35.917Z,9.20
2023-04-01T23:51:40.817Z,8.55
2023-04-01T23:56:46.497Z,9.77
